Time;durP1;ratioP1;P1;durP2;ratioP2;P2;SDS_P1;SDS_P2;PMS_P1;PMS_P2;Temp;Humidity;BMP_temperature;BMP_pressure;BME280_temperature;BME280_humidity;BME280_pressure;Samples;Min_cycle;Max_cycle;Signal;HPM_P1;HPM_P2
2022/09/03 00:01:34;;;;;;;;;;;;;;;18.82;70.02;101036.34;5042226;28;20029;-68
2022/09/03 00:04:16;;;;;;;4.20;1.40;;;;;;;18.83;68.77;101040.78;5043313;28;19947;-68
2022/09/03 00:06:48;;;;;;;3.53;1.88;;;;;;;18.74;68.96;101035.56;5044462;28;20622;-68
2022/09/03 00:09:24;;;;;;;4.50;1.88;;;;;;;18.68;70.32;101027.69;5039235;28;20394;-66
2022/09/03 00:12:00;;;;;;;5.93;2.53;;;;;;;18.65;69.75;101036.59;5037902;28;20049;-67
2022/09/03 00:14:34;;;;;;;2.55;2.00;;;;;;;18.62;69.98;101025.09;5056318;28;20507;-68
2022/09/03 00:17:08;;;;;;;2.58;1.50;;;;;;;18.60;70.28;101021.53;5040996;28;20031;-67
2022/09/03 00:19:36;;;;;;;;;;;;;;;18.48;71.04;101027.94;5040978;28;20032;-67
2022/09/03 00:22:11;;;;;;;6.25;1.60;;;;;;;18.45;70.94;101027.97;5046733;28;19919;-67
2022/09/03 00:24:39;;;;;;;5.00;1.73;;;;;;;18.37;71.92;101020.09;5044436;28;20447;-67
2022/09/03 00:27:13;;;;;;;3.70;1.50;;;;;;;18.32;72.85;101017.47;5038567;28;20367;-68
2022/09/03 00:29:52;;;;;;;4.03;1.60;;;;;;;18.31;72.80;101014.84;5044549;28;20021;-68
2022/09/03 00:32:25;;;;;;;7.40;2.00;;;;;;;18.26;73.11;101012.25;5041508;28;20037;-68
2022/09/03 00:34:59;;;;;;;5.68;1.70;;;;;;;18.22;73.58;101015.84;5036968;28;20032;-69
2022/09/03 00:37:28;;;;;;;7.63;1.60;;;;;;;18.20;74.97;101010.53;5049311;28;20052;-68
2022/09/03 00:39:54;;;;;;;6.63;2.08;;;;;;;18.17;73.83;101018.53;5054014;28;20055;-68
2022/09/03 00:42:33;;;;;;;2.25;1.75;;;;;;;18.11;73.91;101023.97;5051896;28;20029;-69
2022/09/03 00:45:25;;;;;;;5.68;1.83;;;;;;;18.09;74.20;101009.78;5039246;28;20025;-68
2022/09/03 00:48:10;;;;;;;4.85;1.70;;;;;;;18.04;75.08;101014.25;5056215;28;20025;-68
2022/09/03 00:51:13;;;;;;;3.28;1.80;;;;;;;18.05;74.44;101032.00;5046442;28;20021;-68
2022/09/03 00:54:05;;;;;;;2.75;1.50;;;;;;;18.08;74.36;101018.69;5036084;28;20033;-68
2022/09/03 00:56:43;;;;;;;2.58;1.90;;;;;;;18.08;73.94;101023.09;5040635;28;20034;-68
2022/09/03 00:59:28;;;;;;;5.88;1.52;;;;;;;18.08;74.08;101026.69;5040124;28;20599;-68
2022/09/03 01:02:02;;;;;;;2.67;1.70;;;;;;;18.09;74.24;101020.41;5048682;28;20029;-67
2022/09/03 01:04:42;;;;;;;6.10;1.90;;;;;;;18.08;74.22;101026.69;5040155;28;20104;-68
2022/09/03 01:07:45;;;;;;;2.33;1.70;;;;;;;18.04;73.94;101016.94;5052407;28;20384;-67
2022/09/03 01:10:48;;;;;;;3.65;1.80;;;;;;;18.06;74.92;101020.47;5049320;28;20143;-68
2022/09/03 01:13:21;;;;;;;2.00;1.58;;;;;;;18.08;74.87;101029.34;5042882;28;20044;-68
2022/09/03 01:16:01;;;;;;;8.00;2.05;;;;;;;18.07;74.70;101022.25;5037795;28;20045;-68
2022/09/03 01:18:27;;;;;;;4.50;2.00;;;;;;;18.04;75.08;101022.25;5046770;28;20032;-68
2022/09/03 01:21:33;;;;;;;4.80;1.73;;;;;;;18.09;75.10;101015.09;5049835;28;20393;-68
2022/09/03 01:24:22;;;;;;;6.68;1.80;;;;;;;18.08;75.22;101029.34;5038833;28;20052;-67
2022/09/03 01:27:09;;;;;;;4.47;1.85;;;;;;;18.04;75.44;101022.25;5046091;28;20025;-66
2022/09/03 01:29:55;;;;;;;5.22;1.90;;;;;;;18.04;76.16;101019.59;5042979;28;20025;-69
2022/09/03 01:32:46;;;;;;;1.90;1.58;;;;;;;18.01;76.47;101030.28;5051930;28;20476;-68
2022/09/03 01:35:31;;;;;;;4.85;1.60;;;;;;;18.06;76.51;101033.78;5045890;28;20502;-68
2022/09/03 01:38:03;;;;;;;4.60;1.67;;;;;;;18.05;76.32;101029.34;5044593;28;20033;-68
2022/09/03 01:40:41;;;;;;;7.72;2.00;;;;;;;18.06;76.56;101030.25;5042438;28;20075;-68
2022/09/03 01:43:36;;;;;;;3.75;1.90;;;;;;;18.00;76.81;101021.44;5049486;28;20378;-67
2022/09/03 01:46:12;;;;;;;8.73;2.10;;;;;;;17.99;77.26;101024.09;5046513;28;20112;-68
2022/09/03 01:48:58;;;;;;;3.85;1.95;;;;;;;18.00;77.17;101025.84;5036679;28;20033;-68
2022/09/03 01:51:28;;;;;;;7.88;1.92;;;;;;;18.01;77.60;101016.97;5037913;28;20032;-68
2022/09/03 01:54:15;;;;;;;4.95;1.80;;;;;;;18.01;77.43;101014.31;5039311;28;20367;-68
2022/09/03 01:57:19;;;;;;;6.72;1.77;;;;;;;18.02;77.43;101018.75;5055061;28;20086;-67
2022/09/03 02:00:07;;;;;;;6.78;2.13;;;;;;;18.03;77.24;101020.50;5039691;28;20024;-67
2022/09/03 02:02:34;;;;;;;3.28;1.90;;;;;;;18.03;77.99;101018.72;5039723;28;20041;-68
2022/09/03 02:05:07;;;;;;;3.95;2.13;;;;;;;18.03;77.36;101013.41;5037261;28;20025;-69
2022/09/03 02:07:34;;;;;;;;;;;;;;;18.03;77.89;101009.84;5048705;28;20112;-68
2022/09/03 02:10:02;;;;;;;2.38;1.73;;;;;;;18.01;77.65;101012.53;5040084;28;19917;-68
2022/09/03 02:12:32;;;;;;;7.72;1.80;;;;;;;18.00;77.48;101004.53;5035471;28;20025;-68
2022/09/03 02:15:05;;;;;;;5.32;2.17;;;;;;;17.95;77.81;101007.28;5040484;28;20037;-68
2022/09/03 02:17:32;;;;;;;4.43;1.80;;;;;;;17.95;78.15;101001.09;5048011;28;20029;-69
2022/09/03 02:20:02;;;;;;;4.50;1.90;;;;;;;17.94;77.70;100994.84;5044038;28;20029;-69
2022/09/03 02:22:28;;;;;;;3.45;1.75;;;;;;;17.94;77.23;100997.53;5049900;28;20119;-67
2022/09/03 02:24:53;;;;;;;8.80;1.77;;;;;;;17.96;77.75;101000.16;5045040;28;20426;-68
2022/09/03 02:27:19;;;;;;;2.30;1.70;;;;;;;17.94;77.37;101007.31;5048930;28;20028;-68
2022/09/03 02:29:45;;;;;;;2.83;1.77;;;;;;;17.93;76.86;101001.06;5045841;28;20057;-69
2022/09/03 02:32:13;;;;;;;3.42;1.98;;;;;;;17.96;77.01;100997.50;5040342;28;20032;-67
2022/09/03 02:34:40;;;;;;;2.70;1.90;;;;;;;17.96;77.42;101001.06;5045942;28;20024;-67
2022/09/03 02:37:17;;;;;;;4.97;1.83;;;;;;;17.96;76.72;101005.47;5035088;28;20022;-67
2022/09/03 02:39:43;;;;;;;7.20;1.60;;;;;;;17.97;77.27;100999.28;5039355;28;20037;-68
2022/09/03 02:42:10;;;;;;;5.50;1.80;;;;;;;17.94;76.98;100999.31;5042154;28;20553;-68
2022/09/03 02:44:41;;;;;;;2.08;1.52;;;;;;;17.91;77.02;100999.31;5037634;28;20036;-67
2022/09/03 02:47:07;;;;;;;3.22;1.83;;;;;;;17.88;76.98;101000.22;5041737;28;20025;-68
2022/09/03 02:49:33;;;;;;;3.03;1.80;;;;;;;17.84;77.18;100994.06;5051738;28;20105;-69
2022/09/03 02:52:05;;;;;;;2.58;1.60;;;;;;;17.82;77.08;100995.88;5039414;28;20086;-68
2022/09/03 02:54:32;;;;;;;6.95;2.35;;;;;;;17.81;77.00;100996.75;5043174;28;20055;-69
2022/09/03 02:56:58;;;;;;;2.90;1.48;;;;;;;17.78;77.57;100995.91;5050765;28;20018;-67
2022/09/03 02:59:24;;;;;;;6.63;2.00;;;;;;;17.74;77.70;101005.69;5035025;28;20033;-68
2022/09/03 03:01:49;;;;;;;3.35;1.60;;;;;;;17.74;77.87;100999.50;5035179;28;20021;-69
2022/09/03 03:04:14;;;;;;;3.00;1.70;;;;;;;17.73;77.94;100995.06;5040995;28;20071;-67
2022/09/03 03:06:40;;;;;;;3.10;1.90;;;;;;;17.73;76.95;100993.31;5036209;28;20043;-67
2022/09/03 03:09:05;;;;;;;2.72;1.75;;;;;;;17.68;77.17;100995.13;5042816;28;20487;-68
2022/09/03 03:11:31;;;;;;;4.38;2.45;;;;;;;17.71;77.46;101003.06;5049547;28;20024;-68
2022/09/03 03:13:56;;;;;;;9.45;2.45;;;;;;;17.68;77.59;100997.78;5036649;28;20104;-67
2022/09/03 03:16:22;;;;;;;3.05;1.80;;;;;;;17.65;77.97;100995.16;5045067;28;20043;-69
2022/09/03 03:18:47;;;;;;;4.70;2.13;;;;;;;17.65;78.16;100992.50;5038416;28;20025;-68
2022/09/03 03:21:17;;;;;;;7.00;2.28;;;;;;;17.62;78.55;100996.06;5034928;28;20035;-68
2022/09/03 03:23:43;;;;;;;12.48;1.85;;;;;;;17.56;78.55;100992.59;5037520;28;20052;-69
2022/09/03 03:26:12;;;;;;;3.20;1.83;;;;;;;17.49;78.91;100997.97;5047972;28;20057;-68
2022/09/03 03:28:37;;;;;;;6.18;2.00;;;;;;;17.49;78.92;100987.31;5035374;28;20524;-68
2022/09/03 03:31:10;;;;;;;4.75;1.98;;;;;;;17.46;79.40;100987.34;5038610;28;20021;-68
2022/09/03 03:33:35;;;;;;;8.63;1.97;;;;;;;17.43;79.89;100995.38;5046842;28;20435;-67
2022/09/03 03:36:10;;;;;;;5.15;2.20;;;;;;;17.41;79.50;100997.16;5052889;28;20024;-67
2022/09/03 03:38:36;;;;;;;9.68;2.10;;;;;;;17.38;80.01;100994.53;5050125;28;20376;-68
2022/09/03 03:41:10;;;;;;;2.28;1.67;;;;;;;17.32;80.62;100998.13;5051572;28;20031;-68
2022/09/03 03:43:35;;;;;;;6.15;2.00;;;;;;;17.29;81.16;100997.25;5047913;28;20022;-67
2022/09/03 03:46:00;;;;;;;3.83;1.98;;;;;;;17.27;80.62;101002.59;5035711;28;20028;-68
2022/09/03 03:48:26;;;;;;;5.20;1.77;;;;;;;17.27;81.87;100997.28;5035805;28;20112;-69
2022/09/03 03:50:52;;;;;;;2.53;1.80;;;;;;;17.19;81.94;100997.34;5039997;28;20078;-67
2022/09/03 03:53:18;;;;;;;4.95;2.10;;;;;;;17.18;81.64;100992.03;5051209;28;20086;-68
2022/09/03 03:55:53;;;;;;;4.47;1.92;;;;;;;17.14;82.35;100996.50;5049076;28;20492;-67
2022/09/03 03:58:18;;;;;;;3.55;2.17;;;;;;;17.13;83.23;100994.75;5037426;28;20040;-67
2022/09/03 04:00:44;;;;;;;4.32;2.47;;;;;;;17.11;82.89;100998.31;5038540;28;20029;-69
2022/09/03 04:03:09;;;;;;;3.03;1.95;;;;;;;17.08;82.29;100995.66;5046428;28;20026;-68
2022/09/03 04:05:34;;;;;;;3.80;2.00;;;;;;;17.05;83.60;100996.59;5042001;28;20078;-68
2022/09/03 04:08:01;;;;;;;7.05;1.88;;;;;;;17.07;83.68;101000.09;5043897;28;20033;-67
2022/09/03 04:10:26;;;;;;;4.22;2.13;;;;;;;17.07;83.24;101005.41;5036458;28;20045;-68
2022/09/03 04:12:53;;;;;;;3.40;2.10;;;;;;;17.02;82.38;101015.19;5035733;28;20065;-68
2022/09/03 04:15:19;;;;;;;5.93;1.83;;;;;;;17.02;82.72;101012.53;5033063;28;20064;-67
2022/09/03 04:17:44;;;;;;;6.25;2.10;;;;;;;16.99;82.55;101004.59;5042486;28;20025;-68
2022/09/03 04:20:09;;;;;;;1.88;1.70;;;;;;;16.99;82.28;100997.50;5038476;28;20056;-68
2022/09/03 04:22:35;;;;;;;5.63;2.08;;;;;;;16.95;82.48;101003.72;5043009;28;20028;-68
2022/09/03 04:25:00;;;;;;;4.45;2.03;;;;;;;16.94;82.82;101003.75;5050251;28;20100;-68
2022/09/03 04:27:25;;;;;;;5.13;2.10;;;;;;;16.92;82.33;100994.91;5041018;28;20053;-68
2022/09/03 04:29:51;;;;;;;6.82;2.10;;;;;;;16.91;82.22;100999.31;5034722;28;20060;-69
2022/09/03 04:35:00;;;;;;;5.45;2.00;;;;;;;16.85;82.42;101000.22;5046651;28;20120;-68
2022/09/03 04:37:25;;;;;;;3.45;2.28;;;;;;;16.86;81.97;101002.00;5041790;28;20025;-69
2022/09/03 04:39:51;;;;;;;5.90;2.30;;;;;;;16.83;82.51;100998.47;5031923;28;20025;-69
2022/09/03 04:42:17;;;;;;;5.55;2.00;;;;;;;16.82;82.25;100994.94;5031912;28;20022;-70
2022/09/03 04:44:42;;;;;;;2.97;1.90;;;;;;;16.77;82.42;100991.44;5049592;28;20104;-68
2022/09/03 04:47:07;;;;;;;3.47;1.75;;;;;;;16.77;82.45;100991.44;5040401;28;20056;-70
2022/09/03 04:49:33;;;;;;;3.10;1.80;;;;;;;16.74;83.25;100993.22;5050540;28;20495;-69
2022/09/03 04:51:58;;;;;;;7.00;1.92;;;;;;;16.76;82.96;100992.31;5041858;28;20101;-69
2022/09/03 04:54:24;;;;;;;3.92;2.00;;;;;;;16.73;83.33;100989.69;5035688;28;20029;-69
2022/09/03 04:56:49;;;;;;;5.10;2.03;;;;;;;16.72;83.45;100995.00;5041320;28;20581;-69
2022/09/03 04:59:14;;;;;;;2.70;1.90;;;;;;;16.63;83.76;100993.28;5047421;28;20112;-69
2022/09/03 05:01:40;;;;;;;5.00;2.35;;;;;;;16.65;83.99;100991.50;5044470;28;20377;-69
2022/09/03 05:04:06;;;;;;;2.75;1.92;;;;;;;16.65;83.77;100988.84;5059810;28;20387;-69
2022/09/03 05:06:33;;;;;;;5.25;2.47;;;;;;;16.65;84.56;100997.69;5057982;28;20037;-70
2022/09/03 05:08:59;;;;;;;3.60;2.05;;;;;;;16.63;83.92;100995.94;5064677;28;20082;-69
2022/09/03 05:11:26;;;;;;;5.63;2.08;;;;;;;16.60;84.02;100991.50;5051307;28;20044;-69
2022/09/03 05:13:53;;;;;;;4.95;2.17;;;;;;;16.59;84.67;101002.16;5045831;28;20053;-69
2022/09/03 05:16:20;;;;;;;7.22;2.50;;;;;;;16.58;84.83;100993.31;5038590;28;20386;-67
2022/09/03 05:18:46;;;;;;;5.32;2.38;;;;;;;16.55;84.57;100989.78;5039141;28;20435;-68
2022/09/03 05:21:14;;;;;;;5.45;1.88;;;;;;;16.59;85.33;101010.13;5038516;28;20029;-68
2022/09/03 05:23:42;;;;;;;2.65;1.70;;;;;;;16.56;85.40;100997.75;5042986;28;20029;-69
2022/09/03 05:26:10;;;;;;;7.72;2.15;;;;;;;16.54;85.22;100998.66;5052173;28;20029;-70
2022/09/03 05:28:38;;;;;;;4.93;1.88;;;;;;;16.55;85.69;101005.72;5053535;28;20381;-68
2022/09/03 05:31:10;;;;;;;4.43;2.08;;;;;;;16.55;86.28;101005.72;5040897;28;20531;-69
2022/09/03 05:33:37;;;;;;;2.53;1.90;;;;;;;16.56;85.93;100996.88;5048120;28;20037;-68
2022/09/03 05:36:05;;;;;;;3.00;2.15;;;;;;;16.58;85.12;100989.78;5052734;28;20017;-69
2022/09/03 05:38:31;;;;;;;4.03;1.90;;;;;;;16.56;85.73;100997.75;5039407;28;20028;-69
2022/09/03 05:41:01;;;;;;;3.10;1.92;;;;;;;16.57;85.63;100998.66;5052468;28;20055;-69
2022/09/03 05:43:28;;;;;;;3.03;1.70;;;;;;;16.56;85.42;101002.19;5042928;28;20032;-69
2022/09/03 05:46:01;;;;;;;3.42;1.90;;;;;;;16.58;85.29;101006.59;5035308;28;20021;-69
2022/09/03 05:48:30;;;;;;;3.95;2.05;;;;;;;16.61;86.27;101000.38;5043287;28;20025;-69
2022/09/03 05:51:05;;;;;;;7.10;1.95;;;;;;;16.63;86.02;101001.25;5044715;28;20057;-69
2022/09/03 05:53:33;;;;;;;2.85;1.88;;;;;;;16.65;86.71;101004.78;5058997;28;20042;-70
2022/09/03 05:56:01;;;;;;;7.18;1.85;;;;;;;16.68;85.24;100997.69;5049888;28;20462;-68
2022/09/03 05:58:34;;;;;;;5.57;2.00;;;;;;;16.72;84.84;101001.19;5043955;28;20025;-69
2022/09/03 06:01:09;;;;;;;2.30;1.80;;;;;;;16.77;85.53;101002.06;5050993;28;20048;-69
2022/09/03 06:03:34;;;;;;;3.47;1.80;;;;;;;16.77;84.74;101001.19;5038323;28;20547;-68
2022/09/03 06:05:59;;;;;;;2.10;1.80;;;;;;;16.77;85.49;100999.41;5038925;28;20059;-69
2022/09/03 06:08:25;;;;;;;3.40;2.17;;;;;;;16.79;84.37;100996.72;5037198;28;20199;-68
2022/09/03 06:10:57;;;;;;;3.83;2.13;;;;;;;16.85;84.11;100999.34;5046451;28;20041;-69
2022/09/03 06:13:22;;;;;;;8.38;2.63;;;;;;;16.88;84.03;101007.31;5042253;28;20075;-69
2022/09/03 06:15:47;;;;;;;5.43;2.13;;;;;;;16.88;83.17;101006.44;5049257;28;20515;-69
2022/09/03 06:18:12;;;;;;;2.75;1.85;;;;;;;16.92;83.43;101010.88;5050432;28;20037;-69
2022/09/03 06:20:38;;;;;;;7.13;2.10;;;;;;;16.95;83.57;101005.50;5044374;28;20028;-69
2022/09/03 06:23:03;;;;;;;10.77;2.20;;;;;;;16.97;84.02;101009.94;5052613;28;20025;-69
2022/09/03 06:25:28;;;;;;;4.85;1.95;;;;;;;16.98;83.19;101010.78;5053686;28;20036;-69
2022/09/03 06:27:54;;;;;;;4.45;2.10;;;;;;;17.03;83.78;101014.31;5049364;28;20104;-69
2022/09/03 06:30:21;;;;;;;3.00;2.33;;;;;;;17.08;83.63;101007.19;5046574;28;20721;-69
2022/09/03 06:32:46;;;;;;;6.68;2.10;;;;;;;17.13;83.18;101010.69;5049737;28;20029;-69
2022/09/03 06:35:12;;;;;;;6.38;1.98;;;;;;;17.18;82.38;101010.66;5048722;28;20350;-68
2022/09/03 06:37:41;;;;;;;8.68;1.98;;;;;;;17.21;82.35;101012.41;5070218;28;20464;-69
2022/09/03 06:40:12;;;;;;;9.35;2.35;;;;;;;17.23;82.14;101018.56;5063240;28;20024;-68
2022/09/03 06:42:41;;;;;;;8.98;1.90;;;;;;;17.29;82.58;101015.88;5054463;28;20033;-68
2022/09/03 06:45:08;;;;;;;3.20;1.77;;;;;;;17.30;81.91;101026.50;5054062;28;20442;-67
2022/09/03 06:47:33;;;;;;;6.20;2.28;;;;;;;17.35;82.31;101026.47;5049561;28;20029;-68
2022/09/03 06:50:00;;;;;;;3.30;1.77;;;;;;;17.38;81.76;101030.88;5042810;28;20443;-68
2022/09/03 06:52:26;;;;;;;5.07;2.03;;;;;;;17.41;81.39;101031.72;5062424;28;20027;-68
2022/09/03 06:54:52;;;;;;;4.70;1.90;;;;;;;17.43;82.09;101029.06;5048279;28;20664;-69
2022/09/03 06:57:17;;;;;;;4.70;2.10;;;;;;;17.48;82.75;101032.56;5052226;28;20040;-67
2022/09/03 06:59:42;;;;;;;2.97;1.90;;;;;;;17.51;82.99;101036.09;5047034;28;20043;-68
2022/09/03 07:02:08;;;;;;;4.80;1.92;;;;;;;17.54;82.05;101035.19;5037630;28;20104;-68
2022/09/03 07:04:34;;;;;;;4.05;2.38;;;;;;;17.57;82.03;101031.63;5062486;28;20117;-68
2022/09/03 07:06:59;;;;;;;8.95;2.65;;;;;;;17.61;82.36;101031.56;5063768;28;20068;-69
2022/09/03 07:09:25;;;;;;;9.48;2.20;;;;;;;17.65;82.38;101037.75;5049046;28;20052;-69
2022/09/03 07:11:51;;;;;;;4.72;2.00;;;;;;;17.68;82.54;101035.91;5055042;28;20074;-68
2022/09/03 07:14:20;;;;;;;6.93;2.83;;;;;;;17.76;82.40;101033.19;5053616;28;20074;-69
2022/09/03 07:16:46;;;;;;;4.47;2.30;;;;;;;17.79;84.00;101037.59;5072165;28;20025;-68
2022/09/03 07:19:12;;;;;;;6.45;2.15;;;;;;;17.83;83.24;101029.56;5066557;28;20559;-68
2022/09/03 07:21:41;;;;;;;3.92;2.38;;;;;;;17.90;81.73;101040.16;5066293;28;20013;-69
2022/09/03 07:24:08;;;;;;;2.90;2.00;;;;;;;17.97;81.83;101033.88;5042028;28;20024;-68
2022/09/03 07:26:39;;;;;;;4.88;2.03;;;;;;;18.06;81.49;101040.91;5051398;28;20021;-68
2022/09/03 07:29:06;;;;;;;3.80;2.15;;;;;;;18.13;80.17;101032.81;5048025;28;20401;-68
2022/09/03 07:31:35;;;;;;;5.15;2.25;;;;;;;18.20;80.17;101045.16;5050020;28;20021;-68
2022/09/03 07:34:04;;;;;;;2.63;1.35;;;;;;;18.27;80.35;101040.66;5052024;28;20041;-68
2022/09/03 07:36:34;;;;;;;4.53;2.22;;;;;;;18.34;80.28;101041.47;5034992;28;20067;-68
2022/09/03 07:39:00;;;;;;;4.97;1.98;;;;;;;18.42;79.56;101031.59;5042859;28;20059;-68
2022/09/03 07:41:26;;;;;;;5.20;2.13;;;;;;;18.45;78.45;101039.53;5066663;28;20017;-69
2022/09/03 07:43:52;;;;;;;9.23;2.30;;;;;;;18.49;78.94;101035.91;5041256;28;20468;-68
2022/09/03 07:46:22;;;;;;;6.68;1.92;;;;;;;18.57;78.54;101034.94;5040682;28;20424;-69
2022/09/03 07:48:51;;;;;;;2.28;1.88;;;;;;;18.64;77.04;101041.97;5050352;28;20036;-68
2022/09/03 07:51:18;;;;;;;5.15;2.00;;;;;;;18.70;76.85;101034.72;5045746;28;20528;-68
2022/09/03 07:53:45;;;;;;;3.78;2.20;;;;;;;18.75;78.57;101039.16;5058138;28;20055;-69
2022/09/03 07:56:11;;;;;;;3.53;2.22;;;;;;;18.83;78.25;101048.78;5045228;28;20036;-69
2022/09/03 07:58:38;;;;;;;3.53;2.15;;;;;;;18.91;77.65;101047.81;5052835;28;20103;-70
2022/09/03 08:01:07;;;;;;;5.22;1.90;;;;;;;19.00;76.53;101050.34;5052241;28;20404;-68
2022/09/03 08:03:35;;;;;;;5.03;2.13;;;;;;;19.07;77.07;101048.47;5047085;28;20483;-69
2022/09/03 08:06:03;;;;;;;2.13;1.83;;;;;;;19.16;77.63;101046.53;5053361;28;20029;-68
2022/09/03 08:08:30;;;;;;;4.03;1.92;;;;;;;19.23;76.51;101049.09;5053294;28;20120;-69
2022/09/03 08:11:03;;;;;;;4.60;2.10;;;;;;;19.30;75.75;101053.44;5066962;28;20497;-70
2022/09/03 08:13:28;;;;;;;4.25;2.10;;;;;;;19.38;76.96;101046.19;5051354;28;20097;-69
2022/09/03 08:15:55;;;;;;;3.38;2.10;;;;;;;19.46;75.90;101049.59;5041145;28;20017;-69
2022/09/03 08:18:21;;;;;;;7.70;2.45;;;;;;;19.51;75.25;101055.75;5041790;28;20037;-69
2022/09/03 08:20:46;;;;;;;6.53;2.47;;;;;;;19.56;74.96;101055.69;5047244;28;20029;-69
2022/09/03 08:23:13;;;;;;;7.03;2.13;;;;;;;19.67;74.25;101060.84;5057302;28;20035;-69
2022/09/03 08:25:38;;;;;;;3.28;2.20;;;;;;;19.74;74.42;101062.47;5054167;28;20044;-68
2022/09/03 08:28:04;;;;;;;8.35;2.75;;;;;;;19.82;74.01;101071.25;5052806;28;20029;-68
2022/09/03 08:30:29;;;;;;;5.88;2.00;;;;;;;19.94;73.90;101074.59;5056150;28;20032;-69
2022/09/03 08:32:54;;;;;;;4.63;2.33;;;;;;;20.04;73.14;101073.53;5041005;28;20021;-68
2022/09/03 08:35:21;;;;;;;3.95;2.22;;;;;;;20.13;72.05;101070.69;5045952;28;20115;-68
2022/09/03 08:37:50;;;;;;;9.45;2.38;;;;;;;20.20;72.91;101072.31;5062639;28;20028;-68
2022/09/03 08:40:16;;;;;;;5.95;2.38;;;;;;;20.34;71.90;101079.19;5053475;28;20080;-68
2022/09/03 08:42:56;;;;;;;4.75;2.65;;;;;;;20.46;71.58;101073.56;5048216;28;20030;-67
2022/09/03 08:45:22;;;;;;;4.97;2.25;;;;;;;20.54;72.00;101066.28;5045740;28;20017;-68
2022/09/03 08:47:58;;;;;;;10.23;2.58;;;;;;;20.65;72.66;101073.19;5057999;28;20039;-69
2022/09/03 08:50:34;;;;;;;3.97;1.98;;;;;;;20.75;72.20;101074.75;5068044;28;20725;-69
2022/09/03 08:53:15;;;;;;;2.72;2.10;;;;;;;20.81;71.30;101063.94;5051387;28;20032;-68
2022/09/03 08:55:50;;;;;;;4.50;2.20;;;;;;;20.94;71.45;101063.66;5048720;28;20035;-67
2022/09/03 08:58:19;;;;;;;3.53;2.10;;;;;;;21.05;69.63;101066.94;5050823;28;20113;-67
2022/09/03 09:00:44;;;;;;;5.63;2.25;;;;;;;21.18;70.78;101068.44;5055504;28;20097;-68
2022/09/03 09:03:47;;;;;;;5.40;2.13;;;;;;;21.37;72.39;101071.53;5055179;28;20053;-68
2022/09/03 09:06:24;;;;;;;6.32;2.10;;;;;;;21.60;70.10;101069.25;5051914;28;20025;-67
2022/09/03 09:09:14;;;;;;;8.88;2.25;;;;;;;21.75;69.93;101068.84;5037162;28;20108;-68
2022/09/03 09:12:14;;;;;;;5.03;2.50;;;;;;;21.86;67.04;101074.78;5042129;28;20135;-68
2022/09/03 09:15:11;;;;;;;4.28;2.13;;;;;;;21.93;64.98;101071.94;5049957;28;20385;-69
2022/09/03 09:18:02;;;;;;;5.40;2.00;;;;;;;22.08;64.66;101071.50;5053847;28;20056;-69
2022/09/03 09:20:56;;;;;;;4.53;1.63;;;;;;;22.20;63.26;101070.28;5036061;28;20025;-69
2022/09/03 09:23:36;;;;;;;4.13;2.17;;;;;;;22.30;62.64;101073.59;5049647;28;20021;-70
2022/09/03 09:26:08;;;;;;;4.43;1.90;;;;;;;22.40;61.77;101077.81;5050619;28;20033;-69
2022/09/03 09:28:36;;;;;;;4.45;1.83;;;;;;;22.47;62.98;101079.38;5045655;28;20422;-68
2022/09/03 09:31:04;;;;;;;7.55;2.00;;;;;;;22.59;60.82;101083.50;5055856;28;20020;-69
2022/09/03 09:33:31;;;;;;;3.03;1.73;;;;;;;22.79;59.25;101085.59;5045863;28;20029;-69
2022/09/03 09:36:18;;;;;;;5.35;2.08;;;;;;;22.84;60.18;101080.97;5037896;28;20021;-69
2022/09/03 09:38:45;;;;;;;5.25;2.15;;;;;;;22.94;60.42;101086.03;5047655;28;20032;-69
2022/09/03 09:41:17;;;;;;;3.17;1.80;;;;;;;23.07;59.89;101077.56;5045237;28;20159;-68
2022/09/03 09:43:43;;;;;;;4.20;1.70;;;;;;;23.26;60.70;101079.66;5043450;28;20017;-69
2022/09/03 09:46:19;;;;;;;3.25;2.13;;;;;;;23.43;60.25;101087.16;5053302;28;20819;-68
2022/09/03 09:48:57;;;;;;;8.40;2.65;;;;;;;23.65;57.92;101086.44;5050242;28;20033;-71
2022/09/03 09:51:30;;;;;;;4.97;1.70;;;;;;;23.80;57.96;101083.22;5046119;28;20068;-69
2022/09/03 09:54:01;;;;;;;12.43;2.83;;;;;;;23.95;55.01;101081.84;5046052;28;20469;-71
2022/09/03 09:56:27;;;;;;;4.65;2.00;;;;;;;24.07;55.70;101089.44;5043617;28;20082;-69
2022/09/03 09:59:06;;;;;;;5.00;1.70;;;;;;;24.14;53.04;101083.88;5041288;28;20025;-70
2022/09/03 10:01:33;;;;;;;7.47;1.58;;;;;;;24.30;55.47;101084.19;5046203;28;20072;-69
2022/09/03 10:04:07;;;;;;;4.40;2.17;;;;;;;24.38;54.40;101079.41;5048142;28;20033;-68
2022/09/03 10:09:24;;;;;;;5.35;1.50;;;;;;;24.54;52.68;101074.31;5043657;28;20067;-68
2022/09/03 10:11:54;;;;;;;4.18;1.77;;;;;;;24.63;49.75;101068.59;5040030;28;20076;-68
2022/09/03 10:14:25;;;;;;;7.22;1.90;;;;;;;24.77;49.61;101068.09;5041357;28;20392;-69
2022/09/03 10:17:01;;;;;;;4.57;1.63;;;;;;;24.95;51.75;101070.97;5035446;28;20072;-69
2022/09/03 10:19:40;;;;;;;2.55;1.88;;;;;;;25.09;49.25;101068.59;5040253;28;20111;-68
2022/09/03 10:22:19;;;;;;;3.92;1.83;;;;;;;25.22;48.52;101063.59;5042539;28;20021;-70
2022/09/03 10:24:57;;;;;;;8.07;1.92;;;;;;;25.32;48.78;101064.94;5038979;28;20112;-68
2022/09/03 10:27:24;;;;;;;3.72;1.85;;;;;;;25.40;50.13;101061.97;5047921;28;20461;-67
2022/09/03 10:29:49;;;;;;;4.57;1.70;;;;;;;25.53;47.24;101063.22;5039965;28;20028;-67
2022/09/03 10:32:38;;;;;;;13.45;1.95;;;;;;;25.70;47.52;101069.69;5041958;28;20029;-68
2022/09/03 10:35:33;;;;;;;9.10;2.00;;;;;;;25.89;48.43;101069.75;5037803;28;20052;-68
2022/09/03 10:38:36;;;;;;;5.45;1.85;;;;;;;26.01;48.41;101069.22;5034990;28;20029;-68
2022/09/03 10:41:24;;;;;;;7.22;1.65;;;;;;;26.27;46.22;101071.72;5045697;28;20072;-68
2022/09/03 10:43:50;;;;;;;2.83;1.48;;;;;;;26.31;43.77;101066.09;5035162;28;20069;-68
2022/09/03 10:46:23;;;;;;;9.20;2.03;;;;;;;26.43;45.55;101067.38;5041666;28;20044;-68
2022/09/03 10:49:19;;;;;;;5.25;1.90;;;;;;;26.59;44.02;101060.28;5035246;28;20021;-68
2022/09/03 10:52:00;;;;;;;7.40;1.73;;;;;;;26.66;44.41;101066.28;5039587;28;20389;-68
2022/09/03 10:54:36;;;;;;;9.73;2.33;;;;;;;26.74;45.44;101076.75;5041493;28;20492;-68
2022/09/03 10:57:17;;;;;;;6.60;2.00;;;;;;;26.79;45.96;101061.22;5050799;28;20107;-68
2022/09/03 10:59:54;;;;;;;6.47;1.80;;;;;;;26.99;47.14;101062.94;5036547;28;20400;-69
2022/09/03 11:02:38;;;;;;;7.85;1.77;;;;;;;27.25;46.09;101068.88;5036645;28;20381;-68
2022/09/03 11:05:31;;;;;;;3.90;1.52;;;;;;;27.40;43.83;101070.84;5035551;28;21582;-69
2022/09/03 11:08:05;;;;;;;5.43;1.98;;;;;;;27.61;43.95;101062.59;5041683;28;20021;-68
2022/09/03 11:10:33;;;;;;;10.27;2.20;;;;;;;27.55;43.57;101069.19;5044570;28;20060;-69
2022/09/03 11:13:03;;;;;;;3.55;2.08;;;;;;;27.58;41.93;101060.06;5045766;28;20022;-69
2022/09/03 11:15:39;;;;;;;3.50;2.13;;;;;;;27.67;41.96;101066.81;5038325;28;20078;-68
2022/09/03 11:18:19;;;;;;;7.22;1.80;;;;;;;28.00;42.58;101065.97;5035649;28;20025;-71
2022/09/03 11:20:48;;;;;;;4.60;1.77;;;;;;;28.12;42.38;101065.38;5047121;28;20035;-66
2022/09/03 11:23:15;;;;;;;3.85;1.88;;;;;;;28.40;43.65;101072.84;5038555;28;20033;-69
2022/09/03 11:25:47;;;;;;;5.57;2.03;;;;;;;28.41;41.40;101066.47;5049089;28;20029;-68
2022/09/03 11:28:44;;;;;;;4.30;1.60;;;;;;;28.58;39.64;101064.66;5037689;28;20091;-69
2022/09/03 11:31:34;;;;;;;5.38;2.00;;;;;;;28.78;41.29;101063.59;5039615;28;20051;-68
2022/09/03 11:34:43;;;;;;;6.20;1.90;;;;;;;29.02;40.40;101069.44;5037127;28;20025;-69
2022/09/03 11:37:23;;;;;;;5.45;2.55;;;;;;;29.36;39.93;101067.50;5042665;28;20068;-68
2022/09/03 11:40:04;;;;;;;3.78;1.88;;;;;;;29.62;37.82;101066.91;5047242;28;20021;-68
2022/09/03 11:42:38;;;;;;;9.43;1.70;;;;;;;29.69;39.07;101071.00;5040749;28;20037;-68
2022/09/03 11:45:20;;;;;;;6.95;1.85;;;;;;;29.85;38.48;101066.41;5048673;28;20043;-68
2022/09/03 11:47:46;;;;;;;2.58;1.85;;;;;;;30.09;38.97;101063.16;5035189;28;20029;-69
2022/09/03 11:50:20;;;;;;;7.75;2.17;;;;;;;30.57;35.48;101068.31;5041053;28;20029;-69
2022/09/03 11:52:47;;;;;;;3.05;1.80;;;;;;;30.73;36.35;101051.91;5033339;28;20117;-69
2022/09/03 11:55:29;;;;;;;4.80;1.90;;;;;;;30.85;35.12;101061.97;5039343;28;20075;-68